Cochiti Lake, New Mexico
Current Conditions -  °F | °C
As of 9:00 AM on Tuesday 21 Oct 2014 (Local Time) from KSAF Reporting Station
Overcast Overcast  
Wind Chill: 50°   Ceiling: 2600
Heat Index: 50°   Visibility: 9mi
Dew Point: 47°   Wind: 5mph
Humidity: 89%   Direction: 100°E
Pressure: 30.22"   Gusts: NA
Location:  35.65°N, 106.34°W
Report Text: KSAF 211500Z 10004KT 9SM FEW020 BKN026 OVC070 10/08 A3022 RMK AO2 T01000083
Loading
Personal Weather Stations






























Interactive Weather Map
Tropical Storm Tracking
New forecast layout! Learn more

10-Day Weather Forecast

Advertisements
Track Severe Weather on mobile